createdAt,value
2018-11-06T00:01:56.897Z,39.83
2018-11-06T00:04:31.128Z,40.43
2018-11-06T00:07:00.254Z,39.23
2018-11-06T00:09:30.042Z,38.13
2018-11-06T00:11:59.385Z,39.43
2018-11-06T00:14:28.584Z,39.43
2018-11-06T00:16:58.020Z,41.20
2018-11-06T00:19:28.695Z,37.87
2018-11-06T00:21:57.949Z,40.33
2018-11-06T00:24:27.038Z,38.17
2018-11-06T00:26:56.315Z,40.17
2018-11-06T00:29:25.378Z,40.63
2018-11-06T00:31:54.551Z,39.57
2018-11-06T00:34:24.036Z,39.13
2018-11-06T00:36:52.840Z,40.57
2018-11-06T00:39:21.895Z,41.10
2018-11-06T00:41:51.012Z,39.33
2018-11-06T00:44:20.060Z,41.17
2018-11-06T00:46:49.191Z,42.37
2018-11-06T00:49:18.342Z,42.43
2018-11-06T00:51:47.514Z,44.27
2018-11-06T00:54:17.563Z,44.50
2018-11-06T00:56:48.114Z,45.37
2018-11-06T00:59:18.791Z,45.60
2018-11-06T01:01:48.439Z,45.10
2018-11-06T01:04:17.516Z,43.80
2018-11-06T01:06:47.307Z,41.97
2018-11-06T01:09:16.987Z,40.47
2018-11-06T01:11:46.108Z,41.77
2018-11-06T01:14:15.261Z,40.23
2018-11-06T01:16:44.503Z,41.17
2018-11-06T01:19:13.711Z,39.67
2018-11-06T01:21:42.754Z,39.83
2018-11-06T01:24:11.987Z,40.07
2018-11-06T01:26:42.284Z,39.57
2018-11-06T01:29:11.574Z,42.87
2018-11-06T01:31:42.699Z,41.13
2018-11-06T01:34:12.665Z,41.17
2018-11-06T01:36:41.934Z,40.97
2018-11-06T01:39:11.579Z,42.40
2018-11-06T01:41:41.953Z,40.43
2018-11-06T01:44:11.026Z,39.57
2018-11-06T01:46:40.109Z,40.30
2018-11-06T01:49:09.198Z,42.97
2018-11-06T01:51:38.302Z,38.20
2018-11-06T01:54:08.502Z,41.47
2018-11-06T01:56:39.408Z,37.87
2018-11-06T01:59:11.743Z,42.03
2018-11-06T02:01:42.187Z,42.10
2018-11-06T02:04:11.329Z,41.97
2018-11-06T02:19:40.067Z,40.60
2018-11-06T02:22:09.366Z,37.93
2018-11-06T02:24:38.463Z,38.40
2018-11-06T02:27:07.600Z,40.00
2018-11-06T02:29:36.712Z,39.07
2018-11-06T02:32:07.994Z,40.33
2018-11-06T02:34:37.426Z,37.20
2018-11-06T02:37:07.814Z,39.67
2018-11-06T02:39:37.255Z,39.50
2018-11-06T02:42:06.547Z,39.50
2018-11-06T02:44:36.143Z,38.10
2018-11-06T02:47:06.870Z,36.80
2018-11-06T02:49:36.269Z,38.37
2018-11-06T02:52:06.932Z,35.17
2018-11-06T02:54:37.047Z,35.93
2018-11-06T02:57:07.061Z,37.47
2018-11-06T02:59:37.606Z,36.07
2018-11-06T03:02:07.730Z,36.77
2018-11-06T03:04:37.024Z,35.53
2018-11-06T03:07:06.444Z,36.40
2018-11-06T03:09:35.661Z,37.13
2018-11-06T03:12:04.899Z,34.43
2018-11-06T03:14:34.220Z,33.00
2018-11-06T03:17:03.967Z,34.10
2018-11-06T03:19:33.268Z,35.43
2018-11-06T03:22:02.667Z,32.00
2018-11-06T03:24:32.245Z,34.67
2018-11-06T03:27:01.732Z,33.50
2018-11-06T03:29:31.023Z,33.37
2018-11-06T03:32:00.530Z,34.20
2018-11-06T03:34:31.143Z,33.47
2018-11-06T03:37:01.082Z,32.47
2018-11-06T03:39:31.096Z,31.17
2018-11-06T03:42:00.804Z,31.33
2018-11-06T03:44:31.335Z,32.30
2018-11-06T03:47:01.631Z,32.77
2018-11-06T03:49:30.825Z,31.83
2018-11-06T03:52:00.108Z,32.67
2018-11-06T03:54:30.015Z,33.63
2018-11-06T03:56:59.393Z,31.77
2018-11-06T03:59:28.907Z,33.90
2018-11-06T04:01:58.809Z,33.13
2018-11-06T04:04:28.024Z,33.07
2018-11-06T04:06:57.959Z,33.73
2018-11-06T04:09:27.100Z,31.23
2018-11-06T04:11:56.074Z,34.20
2018-11-06T04:14:25.029Z,31.17
2018-11-06T04:16:54.133Z,34.70
2018-11-06T04:19:23.378Z,32.43
2018-11-06T04:21:53.215Z,31.20
2018-11-06T04:24:22.365Z,32.10
2018-11-06T04:26:51.671Z,28.77
2018-11-06T04:29:20.757Z,32.57
2018-11-06T04:31:49.890Z,29.57
2018-11-06T04:34:19.056Z,31.20
2018-11-06T04:36:48.194Z,30.07
2018-11-06T04:39:17.218Z,33.40
2018-11-06T04:41:46.348Z,30.73
2018-11-06T04:44:15.538Z,33.13
2018-11-06T04:46:44.626Z,28.27
2018-11-06T04:49:13.854Z,29.83
2018-11-06T04:51:42.892Z,32.07
2018-11-06T04:54:12.033Z,31.57
2018-11-06T04:56:41.239Z,31.37
2018-11-06T04:59:10.569Z,31.80
2018-11-06T05:01:39.927Z,29.97
2018-11-06T05:04:09.968Z,27.67
2018-11-06T05:06:40.493Z,30.23
2018-11-06T05:09:10.809Z,29.77
2018-11-06T05:11:39.869Z,31.00
2018-11-06T05:14:10.002Z,29.63
2018-11-06T05:16:40.093Z,30.93
2018-11-06T05:19:09.305Z,31.03
2018-11-06T05:21:38.472Z,32.90
2018-11-06T05:24:07.932Z,33.20
2018-11-06T05:26:38.842Z,33.80
2018-11-06T05:29:16.539Z,31.03
2018-11-06T05:31:45.764Z,31.70
2018-11-06T05:34:15.374Z,32.37
2018-11-06T05:36:44.925Z,31.50
2018-11-06T05:39:16.602Z,29.37
2018-11-06T05:41:46.167Z,32.30
2018-11-06T05:44:16.823Z,31.80
2018-11-06T05:46:49.396Z,31.87
2018-11-06T05:49:22.727Z,31.93
2018-11-06T05:51:53.395Z,30.97
2018-11-06T05:54:22.657Z,32.33
2018-11-06T05:56:52.080Z,33.70
2018-11-06T05:59:21.862Z,35.23
2018-11-06T06:01:51.060Z,36.93
2018-11-06T06:04:20.461Z,35.63
2018-11-06T06:06:52.006Z,33.23
2018-11-06T06:09:21.313Z,33.57
2018-11-06T06:11:50.544Z,35.03
2018-11-06T06:14:20.633Z,31.50
2018-11-06T06:16:49.710Z,33.83
2018-11-06T06:19:30.552Z,31.17
2018-11-06T06:22:07.493Z,34.67
2018-11-06T06:24:41.331Z,33.17
2018-11-06T06:27:13.235Z,35.33
2018-11-06T06:29:42.574Z,33.80
2018-11-06T06:32:11.730Z,33.00
2018-11-06T06:34:41.948Z,34.90
2018-11-06T06:37:11.279Z,30.73
2018-11-06T06:39:42.086Z,28.90
2018-11-06T06:42:12.320Z,28.73
2018-11-06T06:44:41.501Z,27.83
2018-11-06T06:47:10.901Z,28.00
2018-11-06T06:49:40.352Z,28.60
2018-11-06T06:52:09.956Z,27.33
2018-11-06T06:54:39.429Z,28.10
2018-11-06T06:57:08.485Z,27.97
2018-11-06T06:59:38.037Z,29.37
2018-11-06T07:02:07.231Z,25.53
2018-11-06T07:04:36.701Z,28.33
2018-11-06T07:07:06.805Z,27.50
2018-11-06T07:09:38.060Z,28.50
2018-11-06T07:12:09.666Z,24.40
2018-11-06T07:14:40.547Z,31.90
2018-11-06T07:17:39.117Z,34.40
2018-11-06T07:20:43.752Z,30.77
2018-11-06T07:23:13.081Z,26.93
2018-11-06T07:25:44.656Z,23.87
2018-11-06T07:28:15.499Z,22.03
2018-11-06T07:30:50.116Z,21.70
2018-11-06T07:33:24.420Z,20.40
2018-11-06T07:36:04.236Z,21.37
2018-11-06T07:38:33.625Z,20.77
2018-11-06T07:41:02.859Z,21.27
2018-11-06T07:43:32.896Z,19.97
2018-11-06T07:46:02.702Z,20.53
2018-11-06T07:48:32.767Z,21.77
2018-11-06T07:51:02.676Z,20.60
2018-11-06T07:53:49.613Z,20.80
2018-11-06T07:56:22.278Z,19.53
2018-11-06T07:58:55.777Z,21.40
2018-11-06T08:01:33.387Z,21.20
2018-11-06T08:04:03.022Z,19.70
2018-11-06T08:06:32.942Z,21.60
2018-11-06T08:09:19.252Z,21.87
2018-11-06T08:12:04.461Z,19.47
2018-11-06T08:14:55.758Z,20.77
2018-11-06T08:17:25.126Z,20.70
2018-11-06T08:19:54.471Z,20.40
2018-11-06T08:22:23.830Z,20.57
2018-11-06T08:24:52.992Z,19.17
2018-11-06T08:27:22.119Z,19.37
2018-11-06T08:29:51.180Z,21.53
2018-11-06T08:32:21.033Z,20.20
2018-11-06T08:34:50.592Z,18.17
2018-11-06T08:37:19.742Z,20.97
2018-11-06T08:39:49.566Z,19.93
2018-11-06T08:42:19.552Z,20.23
2018-11-06T08:44:48.728Z,20.90
2018-11-06T08:47:18.822Z,19.63
2018-11-06T08:49:48.185Z,18.90
2018-11-06T08:52:17.795Z,18.63
2018-11-06T08:54:46.872Z,19.37
2018-11-06T08:57:15.978Z,18.70
2018-11-06T08:59:44.949Z,18.83
2018-11-06T09:02:14.118Z,20.30
2018-11-06T09:04:43.756Z,19.03
2018-11-06T09:07:13.642Z,19.10
2018-11-06T09:09:42.919Z,19.43
2018-11-06T09:12:12.037Z,18.13
2018-11-06T09:14:41.179Z,17.23
2018-11-06T09:17:10.446Z,17.60
2018-11-06T09:19:39.516Z,17.40
2018-11-06T09:22:08.856Z,16.77
2018-11-06T09:24:37.994Z,17.57
2018-11-06T09:27:07.020Z,17.33
2018-11-06T09:29:36.117Z,16.77
2018-11-06T09:32:05.916Z,17.03
2018-11-06T09:34:35.199Z,18.53
2018-11-06T09:37:04.245Z,17.40
2018-11-06T09:39:34.429Z,17.00
2018-11-06T09:42:04.757Z,16.50
2018-11-06T09:44:34.195Z,16.87
2018-11-06T09:47:03.203Z,16.77
2018-11-06T09:49:32.292Z,15.97
2018-11-06T09:52:01.382Z,16.87
2018-11-06T09:54:30.420Z,16.60
2018-11-06T09:56:59.348Z,16.20
2018-11-06T09:59:28.520Z,16.53
2018-11-06T10:01:57.491Z,16.50
2018-11-06T10:04:26.679Z,16.43
2018-11-06T10:06:56.660Z,16.63
2018-11-06T10:09:25.238Z,15.93
2018-11-06T10:11:54.408Z,16.00
2018-11-06T10:14:23.461Z,15.30
2018-11-06T10:16:52.526Z,15.93
2018-11-06T10:19:21.534Z,16.60
2018-11-06T10:21:50.425Z,15.10
2018-11-06T10:24:20.719Z,15.60
2018-11-06T10:26:50.120Z,14.17
2018-11-06T10:29:19.030Z,15.03
2018-11-06T10:31:47.900Z,16.47
2018-11-06T10:34:17.659Z,14.17
2018-11-06T10:36:47.369Z,15.53
2018-11-06T10:39:16.719Z,14.67
2018-11-06T10:41:45.639Z,15.93
2018-11-06T10:44:14.554Z,14.63
2018-11-06T10:46:44.390Z,14.50
2018-11-06T10:49:14.352Z,14.93
2018-11-06T10:51:43.483Z,13.60
2018-11-06T10:54:13.129Z,14.97
2018-11-06T10:56:42.141Z,14.03
2018-11-06T10:59:11.255Z,14.57
2018-11-06T11:01:45.991Z,14.30
2018-11-06T11:04:21.164Z,14.00
2018-11-06T11:06:50.112Z,14.87
2018-11-06T11:09:19.010Z,13.83
2018-11-06T11:11:48.381Z,13.63
2018-11-06T11:14:17.460Z,12.73
2018-11-06T11:16:46.492Z,13.70
2018-11-06T11:19:15.660Z,13.80
2018-11-06T11:21:45.076Z,14.03
2018-11-06T11:24:14.440Z,12.37
2018-11-06T11:26:43.690Z,13.87
2018-11-06T11:29:12.678Z,12.53
2018-11-06T11:31:42.192Z,12.97
2018-11-06T11:34:11.712Z,13.30
2018-11-06T11:36:41.620Z,13.80
2018-11-06T11:39:10.942Z,14.00
2018-11-06T11:41:40.273Z,13.47
2018-11-06T11:44:09.758Z,13.23
2018-11-06T11:46:38.656Z,13.37
2018-11-06T11:49:07.617Z,13.17
2018-11-06T11:51:36.469Z,12.97
2018-11-06T11:54:06.025Z,11.77
2018-11-06T11:56:34.917Z,12.40
2018-11-06T11:59:03.821Z,12.87
2018-11-06T12:01:32.718Z,13.10
2018-11-06T12:04:01.631Z,11.80
2018-11-06T12:06:30.543Z,13.17
2018-11-06T12:08:59.471Z,12.37
2018-11-06T12:11:28.822Z,12.17
2018-11-06T12:13:57.763Z,12.70
2018-11-06T12:16:26.599Z,12.33
2018-11-06T12:18:56.622Z,12.70
2018-11-06T12:21:25.485Z,11.80
2018-11-06T12:23:54.997Z,12.40
2018-11-06T12:26:23.934Z,12.07
2018-11-06T12:28:53.202Z,12.47
2018-11-06T12:31:22.212Z,11.57
2018-11-06T12:33:51.973Z,11.07
2018-11-06T12:36:21.219Z,12.63
2018-11-06T12:38:50.178Z,12.40
2018-11-06T12:41:19.065Z,11.63
2018-11-06T12:43:48.872Z,13.10
2018-11-06T12:46:17.815Z,12.47
2018-11-06T12:48:47.037Z,11.87
2018-11-06T12:51:15.932Z,11.77
2018-11-06T12:53:45.711Z,11.77
2018-11-06T12:56:14.695Z,11.67
2018-11-06T12:58:44.368Z,11.27
2018-11-06T13:01:13.264Z,11.70
2018-11-06T13:03:42.345Z,11.23
2018-11-06T13:06:11.205Z,11.10
2018-11-06T13:08:41.061Z,11.03
2018-11-06T13:11:09.976Z,11.07
2018-11-06T13:13:38.863Z,10.57
2018-11-06T13:16:08.402Z,10.80
2018-11-06T13:18:37.297Z,10.67
2018-11-06T13:21:06.156Z,10.70
2018-11-06T13:23:35.044Z,10.27
2018-11-06T13:26:03.997Z,11.43
2018-11-06T13:28:32.913Z,9.03
2018-11-06T13:31:01.923Z,9.67
2018-11-06T13:33:30.794Z,10.53
2018-11-06T13:35:59.611Z,9.97
2018-11-06T13:38:28.503Z,11.03
2018-11-06T13:40:57.366Z,10.23
2018-11-06T13:43:26.271Z,11.33
2018-11-06T13:45:55.022Z,10.47
2018-11-06T13:48:23.962Z,10.03
2018-11-06T13:50:53.061Z,10.43
2018-11-06T13:53:21.980Z,10.33
2018-11-06T13:55:51.812Z,9.90
2018-11-06T13:58:21.339Z,10.97
2018-11-06T14:00:50.880Z,10.07
2018-11-06T14:03:20.812Z,10.20
2018-11-06T14:05:49.898Z,11.30
2018-11-06T14:08:19.161Z,10.17
2018-11-06T14:10:48.137Z,10.20
2018-11-06T14:13:17.030Z,9.40
2018-11-06T14:15:45.913Z,9.30
2018-11-06T14:18:14.852Z,9.13
2018-11-06T14:20:44.067Z,9.17
2018-11-06T14:23:13.061Z,9.83
2018-11-06T14:25:42.010Z,9.00
2018-11-06T14:28:10.912Z,8.70
2018-11-06T14:30:40.111Z,9.17
2018-11-06T14:33:09.260Z,9.23
2018-11-06T14:35:38.188Z,8.93
2018-11-06T14:38:07.009Z,9.13
2018-11-06T14:40:36.272Z,8.00
2018-11-06T14:43:05.226Z,8.70
2018-11-06T14:45:34.200Z,8.80
2018-11-06T14:48:03.809Z,9.10
2018-11-06T14:50:32.692Z,8.90
2018-11-06T14:53:02.246Z,9.70
2018-11-06T14:55:31.191Z,8.40
2018-11-06T14:58:00.343Z,9.63
2018-11-06T15:00:29.184Z,9.40
2018-11-06T15:02:58.657Z,9.33
2018-11-06T15:05:28.284Z,9.43
2018-11-06T15:07:57.647Z,9.03
2018-11-06T15:10:26.682Z,9.13
2018-11-06T15:12:55.890Z,8.87
2018-11-06T15:15:24.767Z,9.83
2018-11-06T15:17:53.694Z,10.00
2018-11-06T15:20:23.643Z,10.17
2018-11-06T15:22:52.629Z,10.10
2018-11-06T15:25:22.248Z,9.17
2018-11-06T15:27:51.218Z,9.87
2018-11-06T15:30:21.085Z,12.00
2018-11-06T15:32:50.780Z,10.53
2018-11-06T15:35:20.846Z,9.80
2018-11-06T15:37:49.839Z,10.77
2018-11-06T15:40:20.033Z,11.10
2018-11-06T15:42:48.901Z,10.97
2018-11-06T15:45:18.914Z,10.07
2018-11-06T15:47:48.274Z,10.93
2018-11-06T15:50:18.214Z,11.27
2018-11-06T15:52:48.299Z,10.93
2018-11-06T15:55:17.233Z,11.47
2018-11-06T15:57:46.144Z,11.83
2018-11-06T16:00:19.544Z,11.57
2018-11-06T16:02:49.243Z,11.93
2018-11-06T16:05:18.287Z,11.43
2018-11-06T16:07:47.568Z,11.83
2018-11-06T16:10:18.982Z,12.20
2018-11-06T16:12:48.258Z,12.50
2018-11-06T16:15:17.180Z,12.80
2018-11-06T16:17:46.273Z,13.30
2018-11-06T16:20:17.772Z,13.57
2018-11-06T16:22:46.859Z,14.10
2018-11-06T16:25:17.952Z,13.87
2018-11-06T16:27:47.323Z,14.10
2018-11-06T16:30:20.839Z,14.37
2018-11-06T16:32:49.842Z,14.83
2018-11-06T16:35:20.157Z,14.90
2018-11-06T16:37:49.506Z,16.00
2018-11-06T16:40:18.893Z,13.83
2018-11-06T16:42:48.493Z,14.90
2018-11-06T16:45:19.051Z,14.40
2018-11-06T16:47:48.815Z,14.03
2018-11-06T16:50:18.486Z,14.03
2018-11-06T16:52:47.545Z,14.13
2018-11-06T16:55:17.475Z,14.20
2018-11-06T16:57:47.574Z,13.27
2018-11-06T17:00:18.419Z,14.40
2018-11-06T17:02:47.364Z,14.00
2018-11-06T17:05:16.507Z,13.53
2018-11-06T17:07:45.848Z,12.90
2018-11-06T17:10:15.778Z,13.80
2018-11-06T17:12:44.860Z,13.40
2018-11-06T17:15:16.149Z,13.60
2018-11-06T17:17:45.854Z,12.90
2018-11-06T17:20:15.371Z,12.67
2018-11-06T17:25:15.479Z,12.10
2018-11-06T17:27:44.609Z,12.83
2018-11-06T17:30:16.670Z,12.77
2018-11-06T17:32:45.817Z,13.40
2018-11-06T17:35:16.417Z,14.40
2018-11-06T17:37:45.928Z,13.07
2018-11-06T17:40:16.496Z,12.43
2018-11-06T17:42:45.698Z,12.57
2018-11-06T17:45:16.067Z,13.27
2018-11-06T17:47:45.598Z,13.87
2018-11-06T17:50:15.955Z,13.30
2018-11-06T17:52:45.145Z,13.77
2018-11-06T17:55:16.063Z,14.37
2018-11-06T17:57:45.429Z,14.50
2018-11-06T18:00:20.914Z,14.40
2018-11-06T18:02:50.316Z,14.60
2018-11-06T18:05:21.173Z,14.90
2018-11-06T18:07:50.384Z,16.73
2018-11-06T18:10:20.419Z,16.80
2018-11-06T18:12:50.678Z,18.37
2018-11-06T18:15:19.825Z,16.17
2018-11-06T18:17:49.243Z,16.93
2018-11-06T18:20:19.159Z,19.47
2018-11-06T18:22:48.858Z,18.57
2018-11-06T18:27:48.851Z,22.37
2018-11-06T18:30:18.845Z,24.40
2018-11-06T18:32:48.593Z,25.63
2018-11-06T18:35:18.691Z,22.87
2018-11-06T18:37:47.795Z,23.40
2018-11-06T18:40:19.404Z,24.10
2018-11-06T18:42:50.055Z,25.67
2018-11-06T18:45:19.167Z,23.80
2018-11-06T18:47:49.375Z,23.17
2018-11-06T18:50:21.215Z,21.43
2018-11-06T18:52:52.266Z,20.40
2018-11-06T18:55:21.459Z,20.03
2018-11-06T18:57:50.569Z,17.33
2018-11-06T19:00:21.843Z,16.97
2018-11-06T19:02:52.732Z,16.80
2018-11-06T19:05:22.829Z,16.47
2018-11-06T19:07:51.875Z,16.30
2018-11-06T19:10:22.353Z,16.67
2018-11-06T19:12:51.438Z,16.47
2018-11-06T19:15:23.645Z,17.03
2018-11-06T19:17:54.193Z,16.63
2018-11-06T19:20:23.303Z,16.23
2018-11-06T19:22:54.464Z,16.33
2018-11-06T19:25:24.882Z,15.37
2018-11-06T19:27:54.076Z,16.03
2018-11-06T19:30:23.239Z,18.20
2018-11-06T19:32:52.678Z,16.37
2018-11-06T19:35:23.325Z,15.53
2018-11-06T19:37:58.148Z,15.77
2018-11-06T19:40:28.158Z,17.13
2018-11-06T19:42:57.305Z,18.13
2018-11-06T19:45:27.225Z,17.27
2018-11-06T19:47:57.627Z,16.07
2018-11-06T19:50:26.731Z,16.00
2018-11-06T19:52:56.155Z,17.07
2018-11-06T19:55:26.529Z,16.10
2018-11-06T19:57:55.838Z,16.07
2018-11-06T20:00:26.625Z,16.33
2018-11-06T20:02:56.749Z,16.10
2018-11-06T20:05:26.566Z,16.00
2018-11-06T20:07:55.808Z,17.10
2018-11-06T20:10:25.746Z,16.60
2018-11-06T20:12:55.899Z,17.30
2018-11-06T20:15:24.975Z,16.40
2018-11-06T20:17:54.493Z,15.87
2018-11-06T20:20:26.023Z,15.87
2018-11-06T20:22:55.387Z,16.80
2018-11-06T20:25:24.478Z,17.57
2018-11-06T20:27:53.695Z,16.40
2018-11-06T20:30:24.293Z,16.87
2018-11-06T20:32:53.755Z,16.30
2018-11-06T20:35:24.605Z,16.13
2018-11-06T20:37:54.950Z,16.80
2018-11-06T20:40:27.257Z,16.80
2018-11-06T20:42:58.458Z,16.43
2018-11-06T20:45:28.141Z,17.03
2018-11-06T20:47:57.330Z,18.07
2018-11-06T20:50:26.681Z,17.23
2018-11-06T20:52:56.295Z,18.50
2018-11-06T20:55:25.455Z,16.40
2018-11-06T20:57:54.693Z,17.50
2018-11-06T21:00:26.164Z,17.93
2018-11-06T21:02:56.427Z,17.43
2018-11-06T21:05:26.675Z,18.10
2018-11-06T21:07:56.160Z,17.00
2018-11-06T21:10:26.990Z,18.07
2018-11-06T21:12:56.160Z,17.30
2018-11-06T21:15:25.407Z,18.90
2018-11-06T21:17:54.609Z,18.10
2018-11-06T21:20:24.016Z,18.50
2018-11-06T21:22:53.299Z,19.00
2018-11-06T21:25:22.667Z,18.87
2018-11-06T21:27:51.914Z,18.50
2018-11-06T21:30:22.138Z,19.23
2018-11-06T21:32:52.864Z,17.83
2018-11-06T21:35:23.151Z,19.57
2018-11-06T21:37:52.497Z,19.00
2018-11-06T21:40:22.270Z,19.73
2018-11-06T21:42:52.023Z,19.83
2018-11-06T21:45:22.106Z,20.20
2018-11-06T21:47:51.629Z,19.10
2018-11-06T21:50:21.161Z,19.30
2018-11-06T21:52:50.613Z,19.63
2018-11-06T21:55:20.757Z,20.90
2018-11-06T21:57:53.196Z,18.63
2018-11-06T22:00:22.509Z,20.90
2018-11-06T22:02:51.771Z,22.67
2018-11-06T22:05:22.292Z,23.17
2018-11-06T22:07:51.590Z,25.10
2018-11-06T22:10:21.623Z,24.03
2018-11-06T22:12:50.872Z,26.07
2018-11-06T22:15:20.477Z,25.37
2018-11-06T22:17:49.565Z,27.37
2018-11-06T22:20:19.673Z,28.37
2018-11-06T22:22:49.266Z,27.33
2018-11-06T22:25:18.476Z,27.80
2018-11-06T22:27:48.318Z,30.40
2018-11-06T22:30:17.975Z,29.30
2018-11-06T22:32:47.643Z,28.70
2018-11-06T22:35:17.683Z,26.33
2018-11-06T22:37:46.729Z,26.77
2018-11-06T22:40:16.911Z,26.40
2018-11-06T22:42:46.094Z,22.63
2018-11-06T22:45:16.800Z,23.67
2018-11-06T22:47:46.168Z,23.57
2018-11-06T22:50:16.841Z,21.60
2018-11-06T22:52:46.578Z,23.47
2018-11-06T22:55:15.825Z,22.60
2018-11-06T22:57:45.990Z,24.63
2018-11-06T23:00:17.299Z,21.63
2018-11-06T23:02:46.478Z,23.40
2018-11-06T23:05:16.021Z,24.33
2018-11-06T23:07:50.618Z,24.93
2018-11-06T23:10:19.715Z,26.77
2018-11-06T23:12:48.887Z,26.20
2018-11-06T23:15:18.042Z,26.60
2018-11-06T23:17:47.210Z,29.33
2018-11-06T23:20:16.379Z,27.07
2018-11-06T23:22:45.408Z,27.20
2018-11-06T23:25:14.446Z,25.47
2018-11-06T23:27:43.829Z,28.87
2018-11-06T23:30:15.421Z,28.87
2018-11-06T23:32:44.608Z,28.17
2018-11-06T23:35:13.772Z,29.10
2018-11-06T23:37:42.810Z,27.77
2018-11-06T23:40:12.178Z,27.60
2018-11-06T23:42:41.608Z,28.93
2018-11-06T23:45:10.800Z,28.27
2018-11-06T23:47:39.911Z,27.83
2018-11-06T23:50:09.758Z,27.83
2018-11-06T23:52:38.812Z,26.87
2018-11-06T23:55:07.911Z,28.00
2018-11-06T23:57:36.961Z,27.13
